Cherdyn, Russia
Current Conditions -  °F | °C
As of 6:30 PM on Tuesday 21 Oct 2014 (Local Time) from USPP Reporting Station
Clear Clear  
Wind Chill:   Ceiling: Unl
Heat Index: 18°   Visibility: 6mi
Dew Point: 12°   Wind: 7mph
Humidity: 79%   Direction: 70°ENE
Pressure: 29.8"   Gusts: NA
Location:  60.4°N, 56.48°E
Report Text: USPP 211330Z 07003MPS CAVOK M08/M11 Q1009 21420149 NOSIG RMKQFE746/0995
Loading
Personal Weather Stations






























Interactive Weather Map
Tropical Storm Tracking
New forecast layout! Learn more

10-Day Weather Forecast

Advertisements
Track Severe Weather on mobile